»·PEaware :: FDX412 KDEN-KSLC

FDX412 :: KDEN-KSLC

FLIGHT INFORMATION

Flight Status: Arrived
Operator:
Federal Express
More flights by this operator :: More flights under this callsign
Pilot: Ryan L. (28399)
Aircraft: Boeing 787-9 Dreamliner
(B789)
More flights by this aircraft type
Origin: KDEN Denver Intl
United States
Destination: KSLC Salt Lake City Intl
United States
More flights between these airports :: More routes between these airports
Route: +ZIMMR1 CHNGY EKR LEEHY5
File this flight plan on PilotEdge
Remarks:
Altitude:
(Current/Filed)
36,000ft
Speed:
(Current/Filed)
480kts
Departed: 26-Aug-20 12:38 PM
Arrived: 26-Aug-20 01:39 PM
Distance/Time
Traveled:
339nm/1:01
Distance/Time
To Go:
Arrived

Flight Plot

Page will automatically refresh every two minutes.

Flight plan parsing failed; only flown route is shown


Map Options




Map Legend


Flown Route
Filed Route
Departure Airport
Arrival Airport
Navaid (VOR, NDB)
Fix

Horizontal Profiles

Position Reports

Time Latitude Longitude Heading Altitude Ground
Speed
26-Aug-20 12:27 39.830130 -104.675438 90 5448ft 0kts
26-Aug-20 12:28 39.830130 -104.675438 90 5448ft 0kts
26-Aug-20 12:29 39.830130 -104.675438 90 5448ft 0kts
26-Aug-20 12:30 39.830130 -104.675438 90 5448ft 0kts
26-Aug-20 12:31 39.830130 -104.675438 90 5448ft 0kts
26-Aug-20 12:32 39.830130 -104.675438 90 5448ft 0kts
26-Aug-20 12:33 39.830128 -104.675328 90 5448ft 6kts
26-Aug-20 12:34 39.828877 -104.671075 162 5448ft 13kts
26-Aug-20 12:35 39.828443 -104.664135 88 5448ft 12kts
26-Aug-20 12:36 39.829252 -104.660578 3 5448ft 16kts
26-Aug-20 12:37 39.866894 -104.660267 1 6696ft 200kts
26-Aug-20 12:38 39.907579 -104.709561 282 9426ft 277kts
26-Aug-20 12:39 39.921550 -104.819459 280 10019ft 315kts
26-Aug-20 12:40 39.932377 -104.931675 273 11135ft 331kts
26-Aug-20 12:41 39.935470 -105.049716 272 13448ft 349kts
26-Aug-20 12:42 39.938474 -105.184236 272 17326ft 388kts
26-Aug-20 12:43 39.947449 -105.325406 276 21256ft 407kts
26-Aug-20 12:44 39.959068 -105.474023 276 23137ft 419kts
26-Aug-20 12:45 39.970524 -105.622762 276 25578ft 416kts
26-Aug-20 12:46 39.978691 -105.765458 274 29597ft 401kts
26-Aug-20 12:47 39.985730 -105.905664 273 32931ft 389kts
26-Aug-20 12:48 39.992317 -106.041317 273 35696ft 380kts
26-Aug-20 12:49 39.998938 -106.181253 273 36426ft 417kts
26-Aug-20 12:50 40.006333 -106.340838 273 36276ft 451kts
26-Aug-20 12:51 40.013617 -106.503621 273 36271ft 450kts
26-Aug-20 12:52 40.020686 -106.666884 272 36272ft 450kts
26-Aug-20 12:53 40.027146 -106.820988 272 36272ft 450kts
26-Aug-20 12:54 40.033470 -106.975733 272 36275ft 444kts
26-Aug-20 12:55 40.039659 -107.134041 271 36279ft 443kts
26-Aug-20 12:56 40.045618 -107.292237 271 36282ft 443kts
26-Aug-20 12:57 40.051452 -107.452343 271 36253ft 443kts
26-Aug-20 12:58 40.057188 -107.615906 271 36235ft 455kts
26-Aug-20 12:59 40.062662 -107.778273 271 36240ft 454kts
26-Aug-20 13:00 40.068275 -107.941073 272 36239ft 454kts
26-Aug-20 13:01 40.075655 -108.104576 272 36238ft 454kts
26-Aug-20 13:02 40.082887 -108.268040 272 36237ft 454kts
26-Aug-20 13:03 40.089868 -108.430931 272 36236ft 454kts
26-Aug-20 13:04 40.096546 -108.591878 272 36220ft 442kts
26-Aug-20 13:05 40.102832 -108.748585 271 36191ft 443kts
26-Aug-20 13:06 40.108914 -108.905405 271 36136ft 443kts
26-Aug-20 13:07 40.114906 -109.064480 271 36125ft 439kts
26-Aug-20 13:08 40.120407 -109.216280 270 33856ft 428kts
26-Aug-20 13:09 40.125922 -109.376980 271 31381ft 450kts
26-Aug-20 13:10 40.131252 -109.536977 271 28914ft 464kts
26-Aug-20 13:11 40.136474 -109.699457 271 26428ft 449kts
26-Aug-20 13:12 40.141176 -109.853443 271 24209ft 478kts
26-Aug-20 13:13 40.145930 -110.014320 271 24128ft 477kts
26-Aug-20 13:14 40.148569 -110.178253 269 24089ft 477kts
26-Aug-20 13:15 40.147357 -110.345173 268 23089ft 471kts
26-Aug-20 13:16 40.145826 -110.507083 268 21995ft 465kts
26-Aug-20 13:17 40.144034 -110.670693 268 21005ft 460kts
26-Aug-20 13:18 40.142105 -110.826876 268 20065ft 455kts
26-Aug-20 13:19 40.139956 -110.987298 267 19084ft 450kts
26-Aug-20 13:20 40.137562 -111.148060 267 18082ft 446kts
26-Aug-20 13:21 40.135024 -111.299992 267 17055ft 399kts
26-Aug-20 13:22 40.132684 -111.430658 266 16051ft 329kts
26-Aug-20 13:23 40.131061 -111.536064 274 16039ft 273kts
26-Aug-20 13:24 40.161483 -111.629589 292 14480ft 291kts
26-Aug-20 13:25 40.206491 -111.717203 310 12307ft 300kts
26-Aug-20 13:26 40.259093 -111.789234 310 12107ft 256kts
26-Aug-20 13:28 40.311977 -111.852210 318 11786ft 261kts
26-Aug-20 13:29 40.367974 -111.909621 319 11055ft 254kts
26-Aug-20 13:30 40.433812 -111.934133 352 10979ft 234kts
26-Aug-20 13:31 40.493121 -111.940918 351 9958ft 217kts
26-Aug-20 13:32 40.550328 -111.947393 351 8784ft 189kts
26-Aug-20 13:33 40.601407 -111.953264 352 7730ft 177kts
26-Aug-20 13:34 40.646894 -111.958549 352 6791ft 161kts
26-Aug-20 13:35 40.691300 -111.963686 352 5910ft 159kts
26-Aug-20 13:36 40.734999 -111.968684 353 5050ft 156kts
26-Aug-20 13:37 40.778538 -111.973581 354 4256ft 148kts
26-Aug-20 13:38 40.805235 -111.976768 353 4241ft 41kts
26-Aug-20 13:39 40.806264 -111.978622 263 4241ft 0kts

Navigation Log

Ident Type
Flight plan parsing failed, navigation log unavailable